sensor_id;sensor_type;location;lat;lon;timestamp;pressure;altitude;pressure_sealevel;temperature;humidity
14069;BME280;18408;50.020;14.436;2022-08-07T00:01:00;75032.47;;;-145.05;94.25
14069;BME280;18408;50.020;14.436;2022-08-07T00:03:30;75040.69;;;-145.05;94.70
14069;BME280;18408;50.020;14.436;2022-08-07T00:05:59;75044.78;;;-145.05;94.95
14069;BME280;18408;50.020;14.436;2022-08-07T00:08:26;75059.16;;;-145.05;95.22
14069;BME280;18408;50.020;14.436;2022-08-07T00:10:54;75065.31;;;-145.05;95.54
14069;BME280;18408;50.020;14.436;2022-08-07T00:13:21;75067.34;;;-145.05;95.93
14069;BME280;18408;50.020;14.436;2022-08-07T00:15:52;75067.34;;;-145.05;96.44
14069;BME280;18408;50.020;14.436;2022-08-07T00:18:21;75065.31;;;-145.05;96.40
14069;BME280;18408;50.020;14.436;2022-08-07T00:20:51;75067.34;;;-145.05;96.55
14069;BME280;18408;50.020;14.436;2022-08-07T00:23:22;75073.50;;;-145.05;96.79
14069;BME280;18408;50.020;14.436;2022-08-07T00:25:49;75085.81;;;-145.05;97.02
14069;BME280;18408;50.020;14.436;2022-08-07T00:28:19;75094.00;;;-145.05;97.01
14069;BME280;18408;50.020;14.436;2022-08-07T00:30:49;75100.16;;;-145.05;97.19
14069;BME280;18408;50.020;14.436;2022-08-07T00:33:19;75110.44;;;-145.05;97.42
14069;BME280;18408;50.020;14.436;2022-08-07T00:35:57;75110.44;;;-145.05;97.34
14069;BME280;18408;50.020;14.436;2022-08-07T00:38:24;75114.53;;;-145.05;97.92
14069;BME280;18408;50.020;14.436;2022-08-07T00:40:53;75110.44;;;-145.05;98.21
14069;BME280;18408;50.020;14.436;2022-08-07T00:43:23;75120.69;;;-145.05;98.56
14069;BME280;18408;50.020;14.436;2022-08-07T00:45:50;75116.59;;;-145.05;98.43
14069;BME280;18408;50.020;14.436;2022-08-07T00:48:18;75114.53;;;-145.05;98.66
14069;BME280;18408;50.020;14.436;2022-08-07T00:50:47;75122.72;;;-145.05;98.63
14069;BME280;18408;50.020;14.436;2022-08-07T00:53:16;75130.94;;;-145.05;98.72
14069;BME280;18408;50.020;14.436;2022-08-07T00:55:43;75130.94;;;-145.05;99.26
14069;BME280;18408;50.020;14.436;2022-08-07T00:58:11;75137.09;;;-145.05;99.33
14069;BME280;18408;50.020;14.436;2022-08-07T01:00:40;75139.16;;;-145.05;99.71
14069;BME280;18408;50.020;14.436;2022-08-07T01:03:16;75145.28;;;-145.05;100.00
14069;BME280;18408;50.020;14.436;2022-08-07T01:05:44;75147.34;;;-145.05;100.00
14069;BME280;18408;50.020;14.436;2022-08-07T01:08:13;75153.50;;;-145.05;100.00
14069;BME280;18408;50.020;14.436;2022-08-07T01:10:50;75159.66;;;-145.05;100.00
14069;BME280;18408;50.020;14.436;2022-08-07T01:13:20;75157.59;;;-145.05;100.00
14069;BME280;18408;50.020;14.436;2022-08-07T01:15:50;75163.75;;;-145.05;100.00
14069;BME280;18408;50.020;14.436;2022-08-07T01:18:19;75169.91;;;-145.05;100.00
14069;BME280;18408;50.020;14.436;2022-08-07T01:20:51;75176.06;;;-145.05;100.00
14069;BME280;18408;50.020;14.436;2022-08-07T01:23:28;75180.16;;;-145.05;100.00
14069;BME280;18408;50.020;14.436;2022-08-07T01:25:56;75194.53;;;-145.05;100.00
14069;BME280;18408;50.020;14.436;2022-08-07T01:28:27;75196.56;;;-145.05;100.00
14069;BME280;18408;50.020;14.436;2022-08-07T01:30:57;75204.78;;;-145.05;100.00
14069;BME280;18408;50.020;14.436;2022-08-07T01:33:28;75198.63;;;-145.05;100.00
14069;BME280;18408;50.020;14.436;2022-08-07T01:35:56;75200.69;;;-145.05;100.00
14069;BME280;18408;50.020;14.436;2022-08-07T01:38:30;75206.84;;;-145.05;100.00
14069;BME280;18408;50.020;14.436;2022-08-07T01:40:59;75204.78;;;-145.05;100.00
14069;BME280;18408;50.020;14.436;2022-08-07T01:43:28;75206.84;;;-145.05;100.00
14069;BME280;18408;50.020;14.436;2022-08-07T01:45:57;75208.88;;;-145.05;100.00
14069;BME280;18408;50.020;14.436;2022-08-07T01:48:27;75213.00;;;-145.05;100.00
14069;BME280;18408;50.020;14.436;2022-08-07T01:50:59;75210.94;;;-145.05;100.00
14069;BME280;18408;50.020;14.436;2022-08-07T01:53:34;75219.13;;;-145.05;100.00
14069;BME280;18408;50.020;14.436;2022-08-07T01:56:06;75225.28;;;-145.05;100.00
14069;BME280;18408;50.020;14.436;2022-08-07T01:58:38;75235.56;;;-145.05;100.00
14069;BME280;18408;50.020;14.436;2022-08-07T02:01:10;75243.75;;;-145.05;100.00
14069;BME280;18408;50.020;14.436;2022-08-07T02:03:39;75256.06;;;-145.05;100.00
14069;BME280;18408;50.020;14.436;2022-08-07T02:06:09;75254.00;;;-145.05;100.00
14069;BME280;18408;50.020;14.436;2022-08-07T02:08:40;75256.06;;;-145.05;100.00
14069;BME280;18408;50.020;14.436;2022-08-07T02:11:17;75256.06;;;-145.05;100.00
14069;BME280;18408;50.020;14.436;2022-08-07T02:13:45;75262.22;;;-145.05;100.00
14069;BME280;18408;50.020;14.436;2022-08-07T02:16:15;75254.00;;;-145.05;100.00
14069;BME280;18408;50.020;14.436;2022-08-07T02:18:48;75249.91;;;-145.05;100.00
14069;BME280;18408;50.020;14.436;2022-08-07T02:21:15;75245.81;;;-145.05;100.00
14069;BME280;18408;50.020;14.436;2022-08-07T02:23:49;75256.06;;;-145.05;100.00
14069;BME280;18408;50.020;14.436;2022-08-07T02:26:18;75260.16;;;-145.05;100.00
14069;BME280;18408;50.020;14.436;2022-08-07T02:28:49;75266.31;;;-145.05;100.00
14069;BME280;18408;50.020;14.436;2022-08-07T02:31:19;75276.56;;;-145.05;100.00
14069;BME280;18408;50.020;14.436;2022-08-07T02:33:48;75278.63;;;-145.05;100.00
14069;BME280;18408;50.020;14.436;2022-08-07T02:36:17;75278.63;;;-145.05;100.00
14069;BME280;18408;50.020;14.436;2022-08-07T02:38:57;75288.88;;;-145.05;100.00
14069;BME280;18408;50.020;14.436;2022-08-07T02:41:28;75295.03;;;-145.05;100.00
14069;BME280;18408;50.020;14.436;2022-08-07T02:43:56;75299.13;;;-145.05;100.00
14069;BME280;18408;50.020;14.436;2022-08-07T02:46:25;75301.19;;;-145.05;100.00
14069;BME280;18408;50.020;14.436;2022-08-07T02:48:57;75303.25;;;-145.05;100.00
14069;BME280;18408;50.020;14.436;2022-08-07T02:51:24;75301.19;;;-145.05;100.00
14069;BME280;18408;50.020;14.436;2022-08-07T02:54:01;75301.19;;;-145.05;100.00
14069;BME280;18408;50.020;14.436;2022-08-07T02:56:33;75303.25;;;-145.05;100.00
14069;BME280;18408;50.020;14.436;2022-08-07T02:59:07;75305.28;;;-145.05;100.00
14069;BME280;18408;50.020;14.436;2022-08-07T03:01:36;75307.34;;;-145.05;100.00
14069;BME280;18408;50.020;14.436;2022-08-07T03:04:08;75299.13;;;-145.05;100.00
14069;BME280;18408;50.020;14.436;2022-08-07T03:06:36;75299.13;;;-145.05;100.00
14069;BME280;18408;50.020;14.436;2022-08-07T03:09:13;75299.13;;;-145.05;100.00
14069;BME280;18408;50.020;14.436;2022-08-07T03:11:42;75311.44;;;-145.05;100.00
14069;BME280;18408;50.020;14.436;2022-08-07T03:14:14;75311.44;;;-145.05;100.00
14069;BME280;18408;50.020;14.436;2022-08-07T03:16:46;75307.34;;;-145.05;100.00
14069;BME280;18408;50.020;14.436;2022-08-07T03:19:13;75307.34;;;-145.05;100.00
14069;BME280;18408;50.020;14.436;2022-08-07T03:21:43;75313.50;;;-145.05;100.00
14069;BME280;18408;50.020;14.436;2022-08-07T03:24:18;75299.13;;;-145.05;100.00
14069;BME280;18408;50.020;14.436;2022-08-07T03:26:46;75299.13;;;-145.05;100.00
14069;BME280;18408;50.020;14.436;2022-08-07T03:29:14;75305.28;;;-145.05;100.00
14069;BME280;18408;50.020;14.436;2022-08-07T03:31:46;75313.50;;;-145.05;100.00
14069;BME280;18408;50.020;14.436;2022-08-07T03:34:15;75317.59;;;-145.05;100.00
14069;BME280;18408;50.020;14.436;2022-08-07T03:36:45;75303.25;;;-145.05;100.00
14069;BME280;18408;50.020;14.436;2022-08-07T03:39:15;75303.25;;;-145.05;100.00
14069;BME280;18408;50.020;14.436;2022-08-07T03:41:46;75303.25;;;-145.05;100.00
14069;BME280;18408;50.020;14.436;2022-08-07T03:44:15;75313.50;;;-145.05;100.00
14069;BME280;18408;50.020;14.436;2022-08-07T03:46:43;75313.50;;;-145.05;100.00
14069;BME280;18408;50.020;14.436;2022-08-07T03:49:11;75301.19;;;-145.05;100.00
14069;BME280;18408;50.020;14.436;2022-08-07T03:51:38;75295.03;;;-145.05;100.00
14069;BME280;18408;50.020;14.436;2022-08-07T03:54:08;75299.13;;;-145.05;100.00
14069;BME280;18408;50.020;14.436;2022-08-07T03:56:41;75305.28;;;-145.05;100.00
14069;BME280;18408;50.020;14.436;2022-08-07T03:59:10;75311.44;;;-145.05;100.00
14069;BME280;18408;50.020;14.436;2022-08-07T04:01:40;75319.66;;;-145.05;100.00
14069;BME280;18408;50.020;14.436;2022-08-07T04:04:09;75311.44;;;-145.05;100.00
14069;BME280;18408;50.020;14.436;2022-08-07T04:06:37;75315.53;;;-145.05;100.00
14069;BME280;18408;50.020;14.436;2022-08-07T04:09:06;75307.34;;;-145.05;100.00
14069;BME280;18408;50.020;14.436;2022-08-07T04:11:33;75299.13;;;-145.05;100.00
14069;BME280;18408;50.020;14.436;2022-08-07T04:14:08;75303.25;;;-145.05;100.00
14069;BME280;18408;50.020;14.436;2022-08-07T04:16:37;75299.13;;;-145.05;100.00
14069;BME280;18408;50.020;14.436;2022-08-07T04:19:07;75299.13;;;-145.05;100.00
14069;BME280;18408;50.020;14.436;2022-08-07T04:21:37;75305.28;;;-145.05;100.00
14069;BME280;18408;50.020;14.436;2022-08-07T04:24:06;75295.03;;;-145.05;100.00
14069;BME280;18408;50.020;14.436;2022-08-07T04:26:37;75297.09;;;-145.05;100.00
14069;BME280;18408;50.020;14.436;2022-08-07T04:29:05;75299.13;;;-145.05;100.00
14069;BME280;18408;50.020;14.436;2022-08-07T04:31:42;75295.03;;;-145.05;100.00
14069;BME280;18408;50.020;14.436;2022-08-07T04:34:09;75282.72;;;-145.05;100.00
14069;BME280;18408;50.020;14.436;2022-08-07T04:36:38;75266.31;;;-145.05;100.00
14069;BME280;18408;50.020;14.436;2022-08-07T04:39:09;75256.06;;;-145.05;100.00
14069;BME280;18408;50.020;14.436;2022-08-07T04:41:40;75258.13;;;-145.05;100.00
14069;BME280;18408;50.020;14.436;2022-08-07T04:44:09;75237.59;;;-145.05;100.00
14069;BME280;18408;50.020;14.436;2022-08-07T04:46:51;75231.44;;;-145.05;100.00
14069;BME280;18408;50.020;14.436;2022-08-07T04:49:34;75227.34;;;-145.05;100.00
14069;BME280;18408;50.020;14.436;2022-08-07T04:52:11;75229.41;;;-145.05;100.00
14069;BME280;18408;50.020;14.436;2022-08-07T04:54:58;75237.59;;;-145.05;100.00
14069;BME280;18408;50.020;14.436;2022-08-07T04:57:29;75213.00;;;-145.05;100.00
14069;BME280;18408;50.020;14.436;2022-08-07T05:00:00;75198.63;;;-145.05;100.00
14069;BME280;18408;50.020;14.436;2022-08-07T05:02:38;75206.84;;;-145.05;100.00
14069;BME280;18408;50.020;14.436;2022-08-07T05:05:16;75194.53;;;-145.05;100.00
14069;BME280;18408;50.020;14.436;2022-08-07T05:07:52;75184.28;;;-145.05;99.40
14069;BME280;18408;50.020;14.436;2022-08-07T05:10:39;75178.13;;;-145.05;99.03
14069;BME280;18408;50.020;14.436;2022-08-07T05:13:12;75176.06;;;-145.05;99.16
14069;BME280;18408;50.020;14.436;2022-08-07T05:15:41;75167.84;;;-145.05;98.92
14069;BME280;18408;50.020;14.436;2022-08-07T05:18:27;75155.56;;;-145.05;97.88
14069;BME280;18408;50.020;14.436;2022-08-07T05:20:58;75145.28;;;-145.05;97.10
14069;BME280;18408;50.020;14.436;2022-08-07T05:23:31;75118.63;;;-145.05;97.21
14069;BME280;18408;50.020;14.436;2022-08-07T05:26:09;75106.31;;;-145.05;96.02
14069;BME280;18408;50.020;14.436;2022-08-07T05:28:38;75106.31;;;-145.05;95.63
14069;BME280;18408;50.020;14.436;2022-08-07T05:31:10;75096.06;;;-145.05;95.02
14069;BME280;18408;50.020;14.436;2022-08-07T05:33:39;75081.72;;;-145.05;94.77
14069;BME280;18408;50.020;14.436;2022-08-07T05:36:08;75075.56;;;-145.05;94.36
14069;BME280;18408;50.020;14.436;2022-08-07T05:38:42;75061.19;;;-145.05;92.97
14069;BME280;18408;50.020;14.436;2022-08-07T05:41:12;75024.28;;;-145.05;92.83
14069;BME280;18408;50.020;14.436;2022-08-07T05:43:43;74989.41;;;-145.05;91.30
14069;BME280;18408;50.020;14.436;2022-08-07T05:46:13;74989.41;;;-145.05;90.90
14069;BME280;18408;50.020;14.436;2022-08-07T05:48:44;74919.69;;;-145.05;88.06
14069;BME280;18408;50.020;14.436;2022-08-07T05:51:15;74786.34;;;-145.05;82.35
14069;BME280;18408;50.020;14.436;2022-08-07T05:53:45;74659.19;;;-145.05;78.25
14069;BME280;18408;50.020;14.436;2022-08-07T05:56:14;74692.00;;;-145.05;78.85
14069;BME280;18408;50.020;14.436;2022-08-07T05:58:43;74466.44;;;-145.05;74.46
14069;BME280;18408;50.020;14.436;2022-08-07T06:01:14;74158.81;;;-145.05;64.59
14069;BME280;18408;50.020;14.436;2022-08-07T06:03:48;74179.31;;;-145.05;60.74
14069;BME280;18408;50.020;14.436;2022-08-07T06:06:17;74384.41;;;-145.05;67.30
14069;BME280;18408;50.020;14.436;2022-08-07T06:08:44;74242.91;;;-145.05;64.06
14069;BME280;18408;50.020;14.436;2022-08-07T06:11:13;74078.84;;;-145.05;58.77
14069;BME280;18408;50.020;14.436;2022-08-07T06:13:47;74007.09;;;-145.05;55.19
14069;BME280;18408;50.020;14.436;2022-08-07T06:16:22;74078.84;;;-145.05;55.21
14069;BME280;18408;50.020;14.436;2022-08-07T06:18:59;74134.22;;;-145.05;55.82
14069;BME280;18408;50.020;14.436;2022-08-07T06:21:30;73994.78;;;-145.05;51.14
14069;BME280;18408;50.020;14.436;2022-08-07T06:23:59;73867.66;;;-145.05;49.35
14069;BME280;18408;50.020;14.436;2022-08-07T06:26:29;73826.66;;;-145.05;46.27
14069;BME280;18408;50.020;14.436;2022-08-07T06:28:56;73724.13;;;-145.05;39.35
14069;BME280;18408;50.020;14.436;2022-08-07T06:31:25;73642.13;;;-145.05;35.94
14069;BME280;18408;50.020;14.436;2022-08-07T06:33:53;73412.50;;;-145.05;33.88
14069;BME280;18408;50.020;14.436;2022-08-07T06:36:27;73394.03;;;-145.05;33.42
14069;BME280;18408;50.020;14.436;2022-08-07T06:38:56;73465.78;;;-145.05;32.50
14069;BME280;18408;50.020;14.436;2022-08-07T06:41:24;73800.00;;;-145.05;35.86
14069;BME280;18408;50.020;14.436;2022-08-07T06:43:55;74121.91;;;-145.05;40.10
14069;BME280;18408;50.020;14.436;2022-08-07T06:46:26;74265.44;;;-145.05;42.20
14069;BME280;18408;50.020;14.436;2022-08-07T06:48:54;74357.72;;;-145.05;46.26
14069;BME280;18408;50.020;14.436;2022-08-07T06:51:23;74398.75;;;-145.05;46.29
14069;BME280;18408;50.020;14.436;2022-08-07T06:54:02;74384.41;;;-145.05;44.96
14069;BME280;18408;50.020;14.436;2022-08-07T06:56:37;74419.25;;;-145.05;46.24
14069;BME280;18408;50.020;14.436;2022-08-07T06:59:16;74413.09;;;-145.05;46.54
14069;BME280;18408;50.020;14.436;2022-08-07T07:01:44;74392.59;;;-145.05;45.62
14069;BME280;18408;50.020;14.436;2022-08-07T07:04:13;74390.53;;;-145.05;46.72
14069;BME280;18408;50.020;14.436;2022-08-07T07:06:41;74361.84;;;-145.05;45.58
14069;BME280;18408;50.020;14.436;2022-08-07T07:09:21;74421.31;;;-145.05;47.14
14069;BME280;18408;50.020;14.436;2022-08-07T07:12:05;74388.50;;;-145.05;47.25
14069;BME280;18408;50.020;14.436;2022-08-07T07:14:48;74427.47;;;-145.05;47.88
14069;BME280;18408;50.020;14.436;2022-08-07T07:17:21;74402.84;;;-145.05;47.91
14069;BME280;18408;50.020;14.436;2022-08-07T07:19:52;74404.91;;;-145.05;47.23
14069;BME280;18408;50.020;14.436;2022-08-07T07:22:24;74394.66;;;-145.05;46.27
14069;BME280;18408;50.020;14.436;2022-08-07T07:24:58;74380.28;;;-145.05;46.35
14069;BME280;18408;50.020;14.436;2022-08-07T07:27:29;74363.88;;;-145.05;46.44
14069;BME280;18408;50.020;14.436;2022-08-07T07:30:02;74347.47;;;-145.05;45.52
14069;BME280;18408;50.020;14.436;2022-08-07T07:32:32;74308.53;;;-145.05;44.48
14069;BME280;18408;50.020;14.436;2022-08-07T07:35:01;74298.25;;;-145.05;45.74
14069;BME280;18408;50.020;14.436;2022-08-07T07:37:32;74253.16;;;-145.05;44.41
14069;BME280;18408;50.020;14.436;2022-08-07T07:40:06;74249.06;;;-145.05;44.72
14069;BME280;18408;50.020;14.436;2022-08-07T07:42:37;74267.50;;;-145.05;43.99
14069;BME280;18408;50.020;14.436;2022-08-07T07:45:06;74222.38;;;-145.05;42.26
14069;BME280;18408;50.020;14.436;2022-08-07T07:47:34;74265.44;;;-145.05;43.48
14069;BME280;18408;50.020;14.436;2022-08-07T07:50:06;74203.94;;;-145.05;43.00
14069;BME280;18408;50.020;14.436;2022-08-07T07:52:37;74173.19;;;-145.05;44.05
14069;BME280;18408;50.020;14.436;2022-08-07T07:55:10;74171.13;;;-145.05;41.71
14069;BME280;18408;50.020;14.436;2022-08-07T07:57:40;74181.38;;;-145.05;42.53
14069;BME280;18408;50.020;14.436;2022-08-07T08:00:08;74134.22;;;-145.05;41.98
14069;BME280;18408;50.020;14.436;2022-08-07T08:02:38;74115.75;;;-145.05;41.66
14069;BME280;18408;50.020;14.436;2022-08-07T08:05:06;74119.88;;;-145.05;41.56
14069;BME280;18408;50.020;14.436;2022-08-07T08:07:37;74093.19;;;-145.05;40.98
14069;BME280;18408;50.020;14.436;2022-08-07T08:10:20;74119.88;;;-145.05;42.01
14069;BME280;18408;50.020;14.436;2022-08-07T08:12:54;74089.09;;;-145.05;41.22
14069;BME280;18408;50.020;14.436;2022-08-07T08:15:21;74068.59;;;-145.05;41.85
14069;BME280;18408;50.020;14.436;2022-08-07T08:17:51;74056.28;;;-145.05;42.09
14069;BME280;18408;50.020;14.436;2022-08-07T08:20:22;74056.28;;;-145.05;41.06
14069;BME280;18408;50.020;14.436;2022-08-07T08:22:53;74070.66;;;-145.05;40.87
14069;BME280;18408;50.020;14.436;2022-08-07T08:25:41;74068.59;;;-145.05;41.43
14069;BME280;18408;50.020;14.436;2022-08-07T08:28:28;74056.28;;;-145.05;40.94
14069;BME280;18408;50.020;14.436;2022-08-07T08:30:58;74027.59;;;-145.05;40.37
14069;BME280;18408;50.020;14.436;2022-08-07T08:33:28;74029.63;;;-145.05;41.32
14069;BME280;18408;50.020;14.436;2022-08-07T08:35:59;73986.56;;;-145.05;39.27
14069;BME280;18408;50.020;14.436;2022-08-07T08:38:31;74019.38;;;-145.05;39.84
14069;BME280;18408;50.020;14.436;2022-08-07T08:41:07;74015.28;;;-145.05;40.40
14069;BME280;18408;50.020;14.436;2022-08-07T08:43:39;74052.19;;;-145.05;40.02
14069;BME280;18408;50.020;14.436;2022-08-07T08:46:08;74000.94;;;-145.05;39.24
14069;BME280;18408;50.020;14.436;2022-08-07T08:48:38;74000.94;;;-145.05;38.60
14069;BME280;18408;50.020;14.436;2022-08-07T08:51:15;73953.78;;;-145.05;40.67
14069;BME280;18408;50.020;14.436;2022-08-07T08:54:07;73857.41;;;-145.05;37.86
14069;BME280;18408;50.020;14.436;2022-08-07T08:56:47;73877.91;;;-145.05;38.37
14069;BME280;18408;50.020;14.436;2022-08-07T08:59:19;73892.25;;;-145.05;38.34
14069;BME280;18408;50.020;14.436;2022-08-07T09:01:58;73894.31;;;-145.05;37.83
14069;BME280;18408;50.020;14.436;2022-08-07T09:04:43;73929.16;;;-145.05;37.61
14069;BME280;18408;50.020;14.436;2022-08-07T09:07:17;73955.81;;;-145.05;37.94
14069;BME280;18408;50.020;14.436;2022-08-07T09:09:51;73886.09;;;-145.05;37.71
14069;BME280;18408;50.020;14.436;2022-08-07T09:12:28;73863.56;;;-145.05;38.97
14069;BME280;18408;50.020;14.436;2022-08-07T09:15:12;73814.34;;;-145.05;37.05
14069;BME280;18408;50.020;14.436;2022-08-07T09:20:30;73816.38;;;-145.05;35.64
14069;BME280;18408;50.020;14.436;2022-08-07T09:23:08;73818.44;;;-145.05;36.28
14069;BME280;18408;50.020;14.436;2022-08-07T09:25:41;73820.50;;;-145.05;34.12
14069;BME280;18408;50.020;14.436;2022-08-07T09:28:16;73767.19;;;-145.05;34.36
14069;BME280;18408;50.020;14.436;2022-08-07T09:30:53;73793.84;;;-145.05;35.71
14069;BME280;18408;50.020;14.436;2022-08-07T09:33:29;73740.53;;;-145.05;34.46
14069;BME280;18408;50.020;14.436;2022-08-07T09:36:05;73781.53;;;-145.05;35.35
14069;BME280;18408;50.020;14.436;2022-08-07T09:38:37;73746.69;;;-145.05;33.94
14069;BME280;18408;50.020;14.436;2022-08-07T09:41:15;73699.53;;;-145.05;34.47
14069;BME280;18408;50.020;14.436;2022-08-07T09:44:07;73707.72;;;-145.05;33.43
14069;BME280;18408;50.020;14.436;2022-08-07T09:46:48;73730.28;;;-145.05;33.49
14069;BME280;18408;50.020;14.436;2022-08-07T09:49:27;73806.13;;;-145.05;32.85
14069;BME280;18408;50.020;14.436;2022-08-07T09:52:05;73767.19;;;-145.05;33.26
14069;BME280;18408;50.020;14.436;2022-08-07T09:54:43;73765.13;;;-145.05;33.88
14069;BME280;18408;50.020;14.436;2022-08-07T10:00:10;73800.00;;;-145.05;32.84
14069;BME280;18408;50.020;14.436;2022-08-07T10:05:34;73824.59;;;-145.05;33.17
14069;BME280;18408;50.020;14.436;2022-08-07T10:08:14;73738.47;;;-145.05;32.41
14069;BME280;18408;50.020;14.436;2022-08-07T10:10:56;73711.81;;;-145.05;32.29
14069;BME280;18408;50.020;14.436;2022-08-07T10:13:37;73715.94;;;-145.05;32.27
14069;BME280;18408;50.020;14.436;2022-08-07T10:16:24;73658.50;;;-145.05;32.50
14069;BME280;18408;50.020;14.436;2022-08-07T10:18:59;73695.41;;;-145.05;32.14
14069;BME280;18408;50.020;14.436;2022-08-07T10:21:39;73734.38;;;-145.05;32.53
14069;BME280;18408;50.020;14.436;2022-08-07T10:24:15;73781.53;;;-145.05;34.08
14069;BME280;18408;50.020;14.436;2022-08-07T10:26:49;73875.84;;;-145.05;33.94
14069;BME280;18408;50.020;14.436;2022-08-07T10:29:24;73929.16;;;-145.05;33.88
14069;BME280;18408;50.020;14.436;2022-08-07T10:32:04;73828.69;;;-145.05;34.49
14069;BME280;18408;50.020;14.436;2022-08-07T10:34:38;73785.63;;;-145.05;33.94
14069;BME280;18408;50.020;14.436;2022-08-07T10:37:18;73781.53;;;-145.05;33.39
14069;BME280;18408;50.020;14.436;2022-08-07T10:39:57;73789.75;;;-145.05;33.75
14069;BME280;18408;50.020;14.436;2022-08-07T10:42:33;73767.19;;;-145.05;33.62
14069;BME280;18408;50.020;14.436;2022-08-07T10:45:02;73773.34;;;-145.05;34.29
14069;BME280;18408;50.020;14.436;2022-08-07T10:47:41;73724.13;;;-145.05;33.99
14069;BME280;18408;50.020;14.436;2022-08-07T10:50:13;73679.03;;;-145.05;34.07
14069;BME280;18408;50.020;14.436;2022-08-07T10:52:49;73648.25;;;-145.05;32.63
14069;BME280;18408;50.020;14.436;2022-08-07T10:55:25;73658.50;;;-145.05;33.10
14069;BME280;18408;50.020;14.436;2022-08-07T10:57:55;73619.56;;;-145.05;32.39
14069;BME280;18408;50.020;14.436;2022-08-07T11:00:28;73599.06;;;-145.05;32.90
14069;BME280;18408;50.020;14.436;2022-08-07T11:03:13;73642.13;;;-145.05;33.84
14069;BME280;18408;50.020;14.436;2022-08-07T11:05:48;73662.63;;;-145.05;35.20
14069;BME280;18408;50.020;14.436;2022-08-07T11:08:24;73601.09;;;-145.05;32.87
14069;BME280;18408;50.020;14.436;2022-08-07T11:10:56;73650.31;;;-145.05;32.82
14069;BME280;18408;50.020;14.436;2022-08-07T11:13:35;73668.75;;;-145.05;32.99
14069;BME280;18408;50.020;14.436;2022-08-07T11:16:07;73699.53;;;-145.05;33.08
14069;BME280;18408;50.020;14.436;2022-08-07T11:18:53;73674.91;;;-145.05;33.86
14069;BME280;18408;50.020;14.436;2022-08-07T11:21:27;73597.00;;;-145.05;32.53
14069;BME280;18408;50.020;14.436;2022-08-07T11:23:58;73568.31;;;-145.05;32.51
14069;BME280;18408;50.020;14.436;2022-08-07T11:26:31;73623.66;;;-145.05;33.89
14069;BME280;18408;50.020;14.436;2022-08-07T11:29:01;73627.75;;;-145.05;32.60
14069;BME280;18408;50.020;14.436;2022-08-07T11:31:45;73640.06;;;-145.05;33.07
14069;BME280;18408;50.020;14.436;2022-08-07T11:34:28;73603.16;;;-145.05;32.91
14069;BME280;18408;50.020;14.436;2022-08-07T11:37:04;73625.72;;;-145.05;32.55
14069;BME280;18408;50.020;14.436;2022-08-07T11:39:38;73603.16;;;-145.05;32.68
14069;BME280;18408;50.020;14.436;2022-08-07T11:42:12;73594.97;;;-145.05;31.72
14069;BME280;18408;50.020;14.436;2022-08-07T11:44:48;73615.47;;;-145.05;32.13
14069;BME280;18408;50.020;14.436;2022-08-07T11:50:15;73529.34;;;-145.05;32.74
14069;BME280;18408;50.020;14.436;2022-08-07T11:53:07;73449.41;;;-145.05;31.24
14069;BME280;18408;50.020;14.436;2022-08-07T11:55:42;73426.84;;;-145.05;31.73
14069;BME280;18408;50.020;14.436;2022-08-07T11:58:18;73408.38;;;-145.05;30.43
14069;BME280;18408;50.020;14.436;2022-08-07T12:00:53;73424.78;;;-145.05;30.46
14069;BME280;18408;50.020;14.436;2022-08-07T12:06:27;73461.69;;;-145.05;30.88
14069;BME280;18408;50.020;14.436;2022-08-07T12:09:06;73500.66;;;-145.05;30.93
14069;BME280;18408;50.020;14.436;2022-08-07T12:11:43;73549.84;;;-145.05;31.46
14069;BME280;18408;50.020;14.436;2022-08-07T12:14:14;73613.41;;;-145.05;31.42
14069;BME280;18408;50.020;14.436;2022-08-07T12:16:45;73517.06;;;-145.05;31.91
14069;BME280;18408;50.020;14.436;2022-08-07T12:19:17;73500.66;;;-145.05;32.22
14069;BME280;18408;50.020;14.436;2022-08-07T12:21:58;73523.19;;;-145.05;31.64
14069;BME280;18408;50.020;14.436;2022-08-07T12:24:36;73510.91;;;-145.05;31.06
14069;BME280;18408;50.020;14.436;2022-08-07T12:27:07;73541.66;;;-145.05;30.85
14069;BME280;18408;50.020;14.436;2022-08-07T12:29:37;73562.16;;;-145.05;31.38
14069;BME280;18408;50.020;14.436;2022-08-07T12:32:10;73566.25;;;-145.05;31.93
14069;BME280;18408;50.020;14.436;2022-08-07T12:34:42;73576.50;;;-145.05;31.53
14069;BME280;18408;50.020;14.436;2022-08-07T12:37:14;73597.00;;;-145.05;31.26
14069;BME280;18408;50.020;14.436;2022-08-07T12:39:45;73537.56;;;-145.05;31.23
14069;BME280;18408;50.020;14.436;2022-08-07T12:42:15;73478.09;;;-145.05;30.53
14069;BME280;18408;50.020;14.436;2022-08-07T12:44:49;73494.50;;;-145.05;30.72
14069;BME280;18408;50.020;14.436;2022-08-07T12:47:23;73506.78;;;-145.05;30.13
14069;BME280;18408;50.020;14.436;2022-08-07T12:49:56;73521.16;;;-145.05;30.35
14069;BME280;18408;50.020;14.436;2022-08-07T12:52:46;73535.50;;;-145.05;30.46
14069;BME280;18408;50.020;14.436;2022-08-07T12:55:20;73510.91;;;-145.05;30.68
14069;BME280;18408;50.020;14.436;2022-08-07T12:57:50;73478.09;;;-145.05;30.25
14069;BME280;18408;50.020;14.436;2022-08-07T13:00:19;73476.03;;;-145.05;30.06
14069;BME280;18408;50.020;14.436;2022-08-07T13:02:58;73443.25;;;-145.05;29.40
14069;BME280;18408;50.020;14.436;2022-08-07T13:05:37;73490.41;;;-145.05;29.85
14069;BME280;18408;50.020;14.436;2022-08-07T13:08:24;73500.66;;;-145.05;29.73
14069;BME280;18408;50.020;14.436;2022-08-07T13:11:01;73408.38;;;-145.05;30.00